Terminal Aerodrome Forecast
Issued by NWS

Home | Current Version | Previous Version | Text Only | Print | Product List | Glossary On
Versions: 1 2 3 4 5 6 7 8 9 10 11 12 13 14 15 16 17 18 19 20 21 22 23 24 25 26 27 28 29 30 31 32 33 34 35 36 37 38
000
FTUS43 KDMX 270520
TAFFOD
TAF
KFOD 270520Z 2706/2806 VRB03KT P6SM SKC
      TEMPO 2708/2712 5SM BR
     FM271400 15006KT P6SM SKC
     FM271800 16009KT P6SM BKN150
     FM280300 13007KT P6SM BKN050=

USA.gov is the U.S. government's official web portal to all federal, state and local government web resources and services.